Latest Weather Observations for Point Wilson

IDV60901

Issued at 5:11 pm EDT Tuesday 26 March 2019 (issued every 10 minutes, with the page automatically refreshed every 10 minutes)

About weather observations | Map of Melbourne area stations | Latest observations for Melbourne area | Other Formats
Station Details ID: 087166 Name: POINT WILSON Lat: -38.10 Lon: 144.54 Height: 18.0 m
Data from the previous 72 hours. | See also: Recent months at Point Wilson
Date/Time
EDT
Temp
°C
App
Temp
°C
Dew
Point
°C
Rel
Hum
%
Delta-T
°C
Wind Press
QNH
hPa
Press
MSL
hPa
Rain since
9am
mm
Dir  Spd
km/h
Gust
km/h
Spd
kts
Gust
kts
26/05:00pm - - - - - S 20 24 11 13 - - -
26/04:30pm - - - - - SW 28 33 15 18 - - -
26/04:00pm - - - - - WSW 20 28 11 15 - - -
26/03:30pm - - - - - WSW 26 33 14 18 - - -
26/03:00pm - - - - - WSW 24 32 13 17 - - -
26/02:30pm - - - - - WSW 28 33 15 18 - - -
26/02:00pm - - - - - WSW 26 32 14 17 - - -
26/01:30pm - - - - - WSW 30 37 16 20 - - -
26/01:00pm - - - - - WSW 26 32 14 17 - - -
26/12:30pm - - - - - WSW 33 43 18 23 - - -
26/12:00pm - - - - - WSW 30 37 16 20 - - -
26/11:30am - - - - - WSW 37 48 20 26 - - -
26/11:00am - - - - - WSW 37 50 20 27 - - -
26/10:30am - - - - - WSW 35 52 19 28 - - -
26/10:00am - - - - - W 35 46 19 25 - - -
26/09:30am - - - - - W 41 50 22 27 - - -
26/09:00am - - - - - W 44 54 24 29 - - -
26/08:30am - - - - - WNW 37 44 20 24 - - -
26/08:00am - - - - - WNW 35 48 19 26 - - -
26/07:30am - - - - - WNW 39 48 21 26 - - -
26/07:00am - - - - - W 43 54 23 29 - - -
26/06:48am - - - - - WNW 33 56 18 30 - - -
26/06:30am - - - - - WNW 30 35 16 19 - - -
26/06:00am - - - - - WNW 35 44 19 24 - - -
26/05:30am - - - - - WNW 39 56 21 30 - - -
26/05:00am - - - - - WNW 39 48 21 26 - - -
26/04:30am - - - - - WNW 39 54 21 29 - - -
26/04:00am - - - - - WNW 39 46 21 25 - - -
26/03:30am - - - - - WNW 39 48 21 26 - - -
26/03:00am - - - - - WNW 37 48 20 26 - - -
26/02:30am - - - - - WNW 35 44 19 24 - - -
26/02:00am - - - - - WNW 41 54 22 29 - - -
26/01:30am - - - - - WNW 39 52 21 28 - - -
26/01:00am - - - - - WNW 33 43 18 23 - - -
26/12:30am - - - - - WNW 33 41 18 22 - - -
26/12:00am - - - - - NW 35 43 19 23 - - -
 
Date/Time
EDT
Temp
°C
App
Temp
°C
Dew
Point
°C
Rel
Hum
%
Delta-T
°C
Wind Press
QNH
hPa
Press
MSL
hPa
Rain since
9am
mm
Dir  Spd
km/h
Gust
km/h
Spd
kts
Gust
kts
25/11:30pm - - - - - NW 30 35 16 19 - - -
25/11:00pm - - - - - WNW 24 30 13 16 - - -
25/10:30pm - - - - - WNW 30 35 16 19 - - -
25/10:00pm - - - - - WNW 30 35 16 19 - - -
25/09:30pm - - - - - WNW 35 44 19 24 - - -
25/09:00pm - - - - - W 43 54 23 29 - - -
25/08:30pm - - - - - W 39 48 21 26 - - -
25/08:00pm - - - - - W 43 56 23 30 - - -
25/07:30pm - - - - - WSW 44 56 24 30 - - -
25/07:00pm - - - - - W 52 63 28 34 - - -
25/06:30pm - - - - - W 48 59 26 32 - - -
25/06:00pm - - - - - W 50 63 27 34 - - -
25/05:30pm - - - - - W 52 65 28 35 - - -
25/05:00pm - - - - - W 54 70 29 38 - - -
25/04:30pm - - - - - W 56 69 30 37 - - -
25/04:00pm - - - - - W 50 65 27 35 - - -
25/03:57pm - - - - - W 46 61 25 33 - - -
25/03:38pm - - - - - W 43 57 23 31 - - -
25/03:33pm - - - - - W 52 70 28 38 - - -
25/03:30pm - - - - - W 56 70 30 38 - - -
25/03:15pm - - - - - WNW 54 72 29 39 - - -
25/03:00pm - - - - - W 61 74 33 40 - - -
25/02:30pm - - - - - W 61 82 33 44 - - -
25/02:00pm - - - - - W 59 78 32 42 - - -
25/01:39pm - - - - - WSW 63 82 34 44 - - -
25/01:30pm - - - - - W 67 82 36 44 - - -
25/01:11pm - - - - - W 54 76 29 41 - - -
25/01:09pm - - - - - W 54 69 29 37 - - -
25/01:00pm - - - - - W 67 87 36 47 - - -
25/12:33pm - - - - - WNW 57 76 31 41 - - -
25/12:30pm - - - - - WNW 57 72 31 39 - - -
25/12:04pm - - - - - NW 57 76 31 41 - - -
25/12:00pm - - - - - NW 61 76 33 41 - - -
25/11:30am - - - - - WNW 52 67 28 36 - - -
25/11:00am - - - - - WNW 54 65 29 35 - - -
25/10:32am - - - - - WNW 57 76 31 41 - - -
25/10:30am - - - - - WNW 56 72 30 39 - - -
25/10:00am - - - - - WNW 56 72 30 39 - - -
25/09:30am - - - - - WNW 61 80 33 43 - - -
25/09:00am - - - - - WNW 52 70 28 38 - - -
25/08:47am - - - - - WNW 48 70 26 38 - - -
25/08:30am - - - - - WNW 44 57 24 31 - - -
25/08:00am - - - - - WNW 44 63 24 34 - - -
25/07:53am - - - - - WNW 54 72 29 39 - - -
25/07:30am - - - - - WNW 57 72 31 39 - - -
25/07:00am - - - - - WNW 52 69 28 37 - - -
25/06:30am - - - - - WNW 54 67 29 36 - - -
25/06:00am - - - - - WNW 52 65 28 35 - - -
25/05:40am - - - - - W 50 69 27 37 - - -
25/05:30am - - - - - W 56 70 30 38 - - -
25/05:20am - - - - - WNW 46 70 25 38 - - -
25/05:00am - - - - - WNW 46 59 25 32 - - -
25/04:54am - - - - - WNW 46 63 25 34 - - -
25/04:30am - - - - - WNW 57 74 31 40 - - -
25/04:01am - - - - - WNW 48 67 26 36 - - -
25/04:00am - - - - - WNW 46 61 25 33 - - -
25/03:30am - - - - - WNW 52 65 28 35 - - -
25/03:04am - - - - - WNW 54 72 29 39 - - -
25/03:00am - - - - - WNW 54 67 29 36 - - -
25/02:32am - - - - - WNW 59 78 32 42 - - -
25/02:30am - - - - - WNW 61 78 33 42 - - -
25/02:13am - - - - - W 56 76 30 41 - - -
25/02:06am - - - - - WNW 43 69 23 37 - - -
25/02:00am - - - - - WNW 43 57 23 31 - - -
25/01:30am - - - - - WNW 44 57 24 31 - - -
25/01:00am - - - - - WNW 39 48 21 26 - - -
25/12:56am - - - - - WNW 35 46 19 25 - - -
25/12:30am - - - - - NW 50 65 27 35 - - -
25/12:03am - - - - - NW 35 57 19 31 - - -
25/12:00am - - - - - NW 35 46 19 25 - - -
 
Date/Time
EDT
Temp
°C
App
Temp
°C
Dew
Point
°C
Rel
Hum
%
Delta-T
°C
Wind Press
QNH
hPa
Press
MSL
hPa
Rain since
9am
mm
Dir  Spd
km/h
Gust
km/h
Spd
kts
Gust
kts
24/11:54pm - - - - - NW 39 46 21 25 - - -
24/11:30pm - - - - - NNW 41 54 22 29 - - -
24/11:00pm - - - - - NNW 48 67 26 36 - - -
24/10:55pm - - - - - NNW 44 67 24 36 - - -
24/10:30pm - - - - - N 44 54 24 29 - - -
24/10:00pm - - - - - N 46 57 25 31 - - -
24/09:30pm - - - - - N 43 57 23 31 - - -
24/09:29pm - - - - - N 43 57 23 31 - - -
24/09:00pm - - - - - N 33 37 18 20 - - -
24/08:30pm - - - - - N 37 44 20 24 - - -
24/08:00pm - - - - - N 35 43 19 23 - - -
24/07:30pm - - - - - N 41 50 22 27 - - -
24/07:00pm - - - - - N 44 54 24 29 - - -
24/06:30pm - - - - - NNW 48 56 26 30 - - -
24/06:00pm - - - - - N 46 56 25 30 - - -
24/05:30pm - - - - - N 48 57 26 31 - - -
24/05:00pm - - - - - N 52 59 28 32 - - -
24/04:38pm - - - - - N 39 61 21 33 - - -
24/04:30pm - - - - - N 37 50 20 27 - - -
24/04:00pm - - - - - NNW 41 57 22 31 - - -
24/03:59pm - - - - - NNW 43 57 23 31 - - -
24/03:42pm - - - - - NW 39 57 21 31 - - -
24/03:33pm - - - - - NNW 32 57 17 31 - - -
24/03:30pm - - - - - N 28 33 15 18 - - -
24/03:17pm - - - - - NW 24 44 13 24 - - -
24/03:00pm - - - - - ENE 11 22 6 12 - - -
24/02:30pm - - - - - E 19 24 10 13 - - -
24/02:00pm - - - - - E 24 28 13 15 - - -
24/01:30pm - - - - - E 22 24 12 13 - - -
24/01:00pm - - - - - E 19 22 10 12 - - -
24/12:30pm - - - - - E 17 19 9 10 - - -
24/12:00pm - - - - - E 15 19 8 10 - - -
24/11:30am - - - - - E 15 17 8 9 - - -
24/11:00am - - - - - ENE 9 13 5 7 - - -
24/10:30am - - - - - NNE 7 9 4 5 - - -
24/10:00am - - - - - NNE 7 9 4 5 - - -
24/09:30am - - - - - N 11 15 6 8 - - -
24/09:00am - - - - - NNE 13 15 7 8 - - -
24/08:30am - - - - - N 9 11 5 6 - - -
24/08:00am - - - - - NW 11 13 6 7 - - -
24/07:30am - - - - - NNW 15 17 8 9 - - -
24/07:00am - - - - - NNW 17 19 9 10 - - -
24/06:30am - - - - - NW 13 15 7 8 - - -
24/06:00am - - - - - WNW 17 19 9 10 - - -
24/05:30am - - - - - WNW 15 19 8 10 - - -
24/05:00am - - - - - W 13 17 7 9 - - -
24/04:30am - - - - - NNW 9 11 5 6 - - -
24/04:00am - - - - - NW 9 11 5 6 - - -
24/03:30am - - - - - NW 7 9 4 5 - - -
24/03:00am - - - - - NNW 13 17 7 9 - - -
24/02:30am - - - - - NNW 13 17 7 9 - - -
24/02:00am - - - - - WNW 17 24 9 13 - - -
24/01:30am - - - - - WNW 17 19 9 10 - - -
24/01:00am - - - - - WNW 17 19 9 10 - - -
24/12:30am - - - - - WSW 19 22 10 12 - - -
24/12:00am - - - - - WSW 24 28 13 15 - - -
 
Date/Time
EDT
Temp
°C
App
Temp
°C
Dew
Point
°C
Rel
Hum
%
Delta-T
°C
Wind Press
QNH
hPa
Press
MSL
hPa
Rain since
9am
mm
Dir  Spd
km/h
Gust
km/h
Spd
kts
Gust
kts
23/11:30pm - - - - - W 20 28 11 15 - - -
23/11:00pm - - - - - W 19 28 10 15 - - -
23/10:30pm - - - - - W 26 32 14 17 - - -
23/10:00pm - - - - - SW 17 19 9 10 - - -
23/09:30pm - - - - - SW 22 24 12 13 - - -
23/09:00pm - - - - - WSW 22 28 12 15 - - -
23/08:30pm - - - - - SSW 19 22 10 12 - - -
23/08:00pm - - - - - SSW 20 26 11 14 - - -
23/07:30pm - - - - - SSW 22 30 12 16 - - -
23/07:00pm - - - - - SSW 28 30 15 16 - - -
23/06:30pm - - - - - SSW 32 37 17 20 - - -
23/06:00pm - - - - - SSW 39 44 21 24 - - -
23/05:30pm - - - - - SSW 43 50 23 27 - - -

Latest Capital City Observations: Canberra | Sydney | Melbourne | Brisbane | Adelaide | Perth | Hobart | Darwin

Other formats

Comma delimited format used in spreadsheet applications
http://www.bom.gov.au/fwo/IDV60901/IDV60901.94847.axf

JavaScript Object Notation format (JSON) in row-major order
http://www.bom.gov.au/fwo/IDV60901/IDV60901.94847.json

Data quality

Most of these data are generated automatically and are frequently updated. Quality checks on data are not normally performed. It is possible for incorrect values to appear. Refer to information at About Latest Weather Observations and please check the disclaimer before using these data.